createdAt,value
2019-05-19T10:33:16.867Z,65.30
2019-05-19T10:35:47.932Z,61.20
2019-05-19T10:38:19.171Z,59.40
2019-05-19T10:40:50.123Z,58.80
2019-05-19T10:43:21.807Z,57.20
2019-05-19T10:46:02.073Z,57.20
2019-05-19T10:48:33.076Z,57.10
2019-05-19T10:51:04.119Z,60.60
2019-05-19T10:53:35.222Z,61.30
2019-05-19T10:56:06.178Z,58.60
2019-05-19T10:58:37.083Z,62.00
2019-05-19T11:01:08.106Z,61.70
2019-05-19T11:03:39.243Z,62.50
2019-05-19T11:06:10.831Z,63.10
2019-05-19T11:08:41.679Z,64.50
2019-05-19T11:11:12.519Z,63.50
2019-05-19T11:13:44.320Z,62.10
2019-05-19T11:16:15.508Z,63.40
2019-05-19T11:18:46.695Z,61.50
2019-05-19T11:21:17.432Z,62.60
2019-05-19T11:23:48.421Z,64.40
2019-05-19T11:26:19.753Z,65.00
2019-05-19T11:28:51.156Z,65.50
2019-05-19T11:31:22.409Z,63.70
2019-05-19T11:33:53.418Z,62.60
2019-05-19T11:36:24.968Z,64.00
2019-05-19T11:38:55.754Z,66.90
2019-05-19T11:41:27.298Z,67.60
2019-05-19T11:43:58.564Z,68.00
2019-05-19T11:46:29.571Z,66.90
2019-05-19T11:49:00.521Z,67.00
2019-05-19T11:51:31.538Z,69.20
2019-05-19T11:54:02.664Z,70.90
2019-05-19T11:56:33.503Z,71.30
2019-05-19T11:59:04.567Z,71.30
2019-05-19T12:01:36.138Z,75.30
2019-05-19T12:04:07.098Z,74.10
2019-05-19T12:06:40.032Z,74.00
2019-05-19T12:17:44.322Z,79.20
2019-05-19T12:20:16.983Z,82.90
2019-05-19T12:22:49.469Z,73.30
2019-05-19T12:25:22.122Z,77.00
2019-05-19T12:27:54.508Z,78.10
2019-05-19T12:30:26.902Z,74.60
2019-05-19T12:32:59.524Z,73.40
2019-05-19T12:35:32.058Z,72.90
2019-05-19T12:38:05.487Z,74.90
2019-05-19T12:40:38.220Z,74.10
2019-05-19T12:43:10.790Z,71.20
2019-05-19T12:45:43.247Z,71.80
2019-05-19T12:48:16.164Z,71.40
2019-05-19T12:50:48.640Z,72.50
2019-05-19T12:53:20.986Z,72.10
2019-05-19T12:55:53.632Z,70.60
2019-05-19T12:58:25.918Z,68.90
2019-05-19T13:00:58.109Z,73.30
2019-05-19T13:03:30.255Z,70.20
2019-05-19T13:06:02.420Z,70.70
2019-05-19T13:08:35.761Z,72.90
2019-05-19T13:11:08.411Z,73.60
2019-05-19T13:13:40.619Z,78.10
2019-05-19T13:16:13.336Z,77.40
2019-05-19T13:18:45.655Z,81.60
2019-05-19T13:21:17.775Z,84.30
2019-05-19T13:23:50.122Z,88.20
2019-05-19T13:26:22.462Z,89.20
2019-05-19T13:28:54.718Z,89.90
2019-05-19T13:31:33.820Z,90.00
2019-05-19T13:34:06.087Z,90.80
2019-05-19T13:36:40.387Z,92.40
2019-05-19T13:39:12.980Z,91.00
2019-05-19T13:41:45.180Z,89.60
2019-05-19T13:44:17.337Z,89.10
2019-05-19T13:46:50.234Z,88.00
2019-05-19T13:49:22.443Z,86.80
2019-05-19T13:51:55.337Z,88.30
2019-05-19T13:54:27.814Z,89.80
2019-05-19T13:57:11.919Z,87.30
2019-05-19T13:59:34.069Z,87.30
2019-05-19T14:02:06.778Z,90.50
2019-05-19T14:04:39.398Z,91.40
2019-05-19T14:07:11.700Z,90.40
2019-05-19T14:09:43.906Z,90.20
2019-05-19T14:12:16.041Z,91.30
2019-05-19T14:14:48.175Z,90.10
2019-05-19T14:17:20.308Z,88.60
2019-05-19T14:19:52.512Z,88.20
2019-05-19T14:22:24.850Z,87.30
2019-05-19T14:24:57.322Z,86.90
2019-05-19T14:27:31.118Z,89.50
2019-05-19T14:30:03.434Z,87.80
2019-05-19T14:32:35.704Z,90.10
2019-05-19T14:35:08.481Z,88.90
2019-05-19T14:37:40.773Z,90.10
2019-05-19T14:40:15.351Z,89.20
2019-05-19T14:42:54.991Z,90.30
2019-05-19T14:45:27.289Z,90.40
2019-05-19T14:47:59.788Z,88.80
2019-05-19T14:50:31.928Z,90.20
2019-05-19T14:53:04.120Z,90.00
2019-05-19T14:55:36.410Z,90.00
2019-05-19T14:58:08.807Z,90.00
2019-05-19T15:00:40.920Z,90.10
2019-05-19T15:03:13.601Z,90.00
2019-05-19T15:05:45.831Z,90.30
2019-05-19T15:08:17.979Z,91.20
2019-05-19T15:10:50.404Z,91.70
2019-05-19T15:13:22.766Z,91.20
2019-05-19T15:15:57.956Z,91.80
2019-05-19T15:18:29.131Z,92.80
2019-05-19T15:21:01.589Z,93.30
2019-05-19T15:23:33.804Z,94.00
2019-05-19T15:26:06.052Z,95.10
2019-05-19T15:28:38.233Z,95.30
2019-05-19T15:31:10.342Z,94.80
2019-05-19T15:33:42.528Z,94.30
2019-05-19T15:36:15.082Z,95.10
2019-05-19T15:38:47.249Z,95.30
2019-05-19T15:41:19.448Z,94.70
2019-05-19T15:43:51.747Z,94.50
2019-05-19T15:46:24.220Z,95.20
2019-05-19T15:48:56.417Z,96.10
2019-05-19T15:51:33.536Z,96.90
2019-05-19T15:54:02.364Z,96.80
2019-05-19T15:56:34.997Z,97.30
2019-05-19T15:59:07.285Z,97.20
2019-05-19T16:01:39.988Z,98.10
2019-05-19T16:04:12.168Z,98.30
2019-05-19T16:06:44.625Z,98.60
2019-05-19T16:09:16.865Z,98.80
2019-05-19T16:11:49.087Z,99.40
2019-05-19T16:14:21.705Z,99.90
2019-05-19T16:16:54.193Z,99.90
2019-05-19T16:19:26.346Z,99.90
2019-05-19T16:21:58.972Z,99.90
2019-05-19T16:24:31.477Z,99.90
2019-05-19T16:27:03.688Z,99.90
2019-05-19T16:29:35.983Z,99.90
2019-05-19T16:32:08.180Z,99.90
2019-05-19T16:34:41.427Z,99.90
2019-05-19T16:37:24.658Z,99.90
2019-05-19T16:39:57.311Z,99.90
2019-05-19T16:42:30.395Z,99.90
2019-05-19T16:45:02.553Z,99.90
2019-05-19T16:47:34.662Z,99.90
2019-05-19T16:50:07.159Z,99.90
2019-05-19T16:52:41.023Z,99.90
2019-05-19T16:55:32.423Z,99.90
2019-05-19T16:58:20.206Z,99.90
2019-05-19T17:00:38.655Z,99.90
2019-05-19T17:03:11.219Z,99.90
2019-05-19T17:05:43.424Z,99.90
2019-05-19T17:08:15.726Z,99.90
2019-05-19T17:10:47.886Z,99.90
2019-05-19T17:13:20.303Z,99.90
2019-05-19T17:15:52.499Z,99.90
2019-05-19T17:18:24.946Z,99.90
2019-05-19T17:20:57.131Z,99.90
2019-05-19T17:23:29.448Z,99.90
2019-05-19T17:26:01.653Z,99.90
2019-05-19T17:28:34.232Z,99.90
2019-05-19T17:31:07.740Z,99.90
2019-05-19T17:33:40.281Z,99.90
2019-05-19T17:36:12.673Z,99.90
2019-05-19T17:38:45.260Z,99.90
2019-05-19T17:41:21.222Z,99.90
2019-05-19T17:44:02.450Z,99.90
2019-05-19T17:46:34.970Z,99.90
2019-05-19T17:49:07.208Z,99.90
2019-05-19T17:51:39.540Z,99.90
2019-05-19T17:54:11.738Z,99.90
2019-05-19T17:56:44.732Z,99.90
2019-05-19T17:59:21.564Z,99.90
2019-05-19T18:01:54.009Z,99.90
2019-05-19T18:04:26.460Z,99.90
2019-05-19T18:06:59.071Z,99.90
2019-05-19T18:09:31.580Z,99.90
2019-05-19T18:12:04.241Z,99.90
2019-05-19T18:14:36.648Z,99.90
2019-05-19T18:17:09.030Z,99.90
2019-05-19T18:19:43.568Z,99.90
2019-05-19T18:22:16.126Z,99.90
2019-05-19T18:25:09.040Z,99.90
2019-05-19T18:27:43.393Z,99.90
2019-05-19T18:30:17.436Z,99.90
2019-05-19T18:32:54.282Z,99.90
2019-05-19T18:35:27.480Z,99.90
2019-05-19T18:38:00.657Z,99.90
2019-05-19T18:40:35.593Z,99.90
2019-05-19T18:43:15.232Z,99.90
2019-05-19T18:45:56.737Z,99.90
2019-05-19T18:48:31.247Z,99.90
2019-05-19T18:51:08.888Z,99.90
2019-05-19T18:53:45.929Z,99.90
2019-05-19T18:56:22.300Z,99.90
2019-05-19T18:59:08.608Z,99.90
2019-05-19T19:01:45.676Z,99.90
2019-05-19T19:04:18.194Z,99.90
2019-05-19T19:06:55.010Z,99.90
2019-05-19T19:09:27.700Z,99.90
2019-05-19T19:12:00.836Z,99.90
2019-05-19T19:14:33.720Z,99.90
2019-05-19T19:17:07.009Z,99.90
2019-05-19T19:19:42.953Z,99.90
2019-05-19T19:22:16.176Z,99.90
2019-05-19T19:24:53.831Z,99.90
2019-05-19T19:27:26.461Z,99.90
2019-05-19T19:30:03.331Z,99.90
2019-05-19T19:32:34.101Z,99.90
2019-05-19T19:35:06.836Z,99.90
2019-05-19T19:37:39.627Z,99.90
2019-05-19T19:40:13.436Z,99.90
2019-05-19T19:42:47.192Z,99.90
2019-05-19T19:45:19.977Z,99.90
2019-05-19T19:47:52.852Z,99.90
2019-05-19T19:50:25.320Z,99.90
2019-05-19T19:53:01.802Z,99.90
2019-05-19T19:55:39.638Z,99.90
2019-05-19T19:58:12.380Z,99.90
2019-05-19T20:00:47.579Z,99.90
2019-05-19T20:03:20.513Z,99.90
2019-05-19T20:05:55.714Z,99.90
2019-05-19T20:08:31.684Z,99.90
2019-05-19T20:11:05.338Z,99.90
2019-05-19T20:13:37.660Z,99.90
2019-05-19T20:16:10.151Z,99.90
2019-05-19T20:18:42.597Z,99.90
2019-05-19T20:21:16.525Z,99.90
2019-05-19T20:23:51.778Z,99.90
2019-05-19T20:26:27.260Z,99.90
2019-05-19T20:29:00.844Z,99.90
2019-05-19T20:31:34.098Z,99.90
2019-05-19T20:34:13.350Z,99.90
2019-05-19T20:36:45.595Z,99.90
2019-05-19T20:39:18.677Z,99.90
2019-05-19T20:41:54.632Z,99.90
2019-05-19T20:44:29.966Z,99.90
2019-05-19T20:47:04.559Z,99.90
2019-05-19T20:49:38.850Z,99.90
2019-05-19T20:52:12.845Z,99.90
2019-05-19T20:54:45.091Z,99.90
2019-05-19T20:57:17.565Z,99.90
2019-05-19T20:59:50.311Z,99.90
2019-05-19T21:02:22.711Z,99.90
2019-05-19T21:04:57.784Z,99.90
2019-05-19T21:07:30.326Z,99.90
2019-05-19T21:10:04.085Z,99.90
2019-05-19T21:12:36.896Z,99.90
2019-05-19T21:15:10.523Z,99.90
2019-05-19T21:17:43.455Z,99.90
2019-05-19T21:20:16.171Z,99.90
2019-05-19T21:22:48.964Z,99.90
2019-05-19T21:25:22.267Z,99.90
2019-05-19T21:27:54.840Z,99.90
2019-05-19T21:30:27.588Z,99.90
2019-05-19T21:33:00.081Z,99.90
2019-05-19T21:35:33.262Z,99.90
2019-05-19T21:38:06.035Z,99.90
2019-05-19T21:40:38.781Z,99.90
2019-05-19T21:43:11.622Z,99.90
2019-05-19T21:45:44.105Z,99.90
2019-05-19T21:48:18.193Z,99.90
2019-05-19T21:50:50.483Z,99.90
2019-05-19T21:53:23.191Z,99.90
2019-05-19T21:55:55.427Z,99.90
2019-05-19T21:58:28.090Z,99.90
2019-05-19T22:01:00.434Z,99.90
2019-05-19T22:03:33.057Z,99.90
2019-05-19T22:06:05.729Z,99.90
2019-05-19T22:08:39.653Z,99.90
2019-05-19T22:11:12.199Z,99.90
2019-05-19T22:13:45.595Z,99.90
2019-05-19T22:16:18.794Z,99.90
2019-05-19T22:18:51.055Z,99.90
2019-05-19T22:21:23.503Z,99.90
2019-05-19T22:23:55.681Z,99.90
2019-05-19T22:26:28.410Z,99.90
2019-05-19T22:29:01.115Z,99.90
2019-05-19T22:31:37.041Z,99.90
2019-05-19T22:34:07.936Z,99.90
2019-05-19T22:36:40.239Z,99.90
2019-05-19T22:39:12.631Z,99.90
2019-05-19T22:41:45.112Z,99.90
2019-05-19T22:44:20.333Z,99.90
2019-05-19T22:46:59.383Z,99.90
2019-05-19T22:49:34.366Z,99.90
2019-05-19T22:52:07.508Z,99.90
2019-05-19T22:54:40.906Z,99.90
2019-05-19T22:57:13.153Z,99.90
2019-05-19T22:59:46.400Z,99.90
2019-05-19T23:02:18.869Z,99.90
2019-05-19T23:04:51.658Z,99.90
2019-05-19T23:07:24.018Z,99.90
2019-05-19T23:09:56.351Z,99.90
2019-05-19T23:12:28.939Z,99.90
2019-05-19T23:15:01.443Z,99.90
2019-05-19T23:17:33.769Z,99.90
2019-05-19T23:20:06.651Z,99.90
2019-05-19T23:22:38.971Z,99.90
2019-05-19T23:25:18.304Z,99.90
2019-05-19T23:27:50.753Z,99.90
2019-05-19T23:30:24.127Z,99.90
2019-05-19T23:32:56.431Z,99.90
2019-05-19T23:35:28.742Z,99.90
2019-05-19T23:38:01.123Z,99.90
2019-05-19T23:40:33.475Z,99.90
2019-05-19T23:43:05.744Z,99.90
2019-05-19T23:45:38.111Z,99.90
2019-05-19T23:48:10.628Z,99.90
2019-05-19T23:50:42.916Z,99.90
2019-05-19T23:53:15.486Z,99.90
2019-05-19T23:55:48.055Z,99.90
2019-05-19T23:58:20.466Z,99.90
